Time;durP1;ratioP1;P1;durP2;ratioP2;P2;SDS_P1;SDS_P2;PMS_P1;PMS_P2;Temp;Humidity;BMP_temperature;BMP_pressure;BME280_temperature;BME280_humidity;BME280_pressure;Samples;Min_cycle;Max_cycle;Signal;HPM_P1;HPM_P2
2022/11/23 00:00:36;;;;;;;0.20;0.20;;;;;;;9.86;74.93;99532.75;5068984;28;20039;-78
2022/11/23 00:03:03;;;;;;;0.38;0.32;;;;;;;9.86;75.11;99542.47;5068980;28;20035;-78
2022/11/23 00:05:30;;;;;;;0.20;0.20;;;;;;;9.86;74.84;99537.19;5067448;28;20488;-78
2022/11/23 00:07:56;;;;;;;0.20;0.20;;;;;;;9.83;74.98;99542.59;5070300;28;20056;-78
2022/11/23 00:10:22;;;;;;;0.20;0.20;;;;;;;9.82;74.95;99551.44;5072397;28;20042;-78
2022/11/23 00:12:49;;;;;;;0.20;0.20;;;;;;;9.83;75.05;99547.88;5070446;28;20060;-79
2022/11/23 00:15:15;;;;;;;0.10;0.10;;;;;;;9.82;75.11;99547.03;5068999;28;20037;-79
2022/11/23 00:17:41;;;;;;;0.20;0.20;;;;;;;9.84;75.09;99554.91;5067991;28;20082;-79
2022/11/23 00:20:08;;;;;;;2.88;1.27;;;;;;;9.77;75.44;99559.56;5074384;28;20365;-78
2022/11/23 00:22:35;;;;;;;0.10;0.10;;;;;;;9.79;75.39;99564.78;5067230;28;20120;-78
2022/11/23 00:25:01;;;;;;;0.20;0.20;;;;;;;9.79;75.18;99567.44;5066327;28;20095;-78
2022/11/23 00:27:27;;;;;;;0.82;0.82;;;;;;;9.79;75.61;99578.88;5071416;28;20025;-77
2022/11/23 00:29:53;;;;;;;0.65;0.65;;;;;;;9.82;75.51;99580.53;5072956;28;20051;-79
2022/11/23 00:32:19;;;;;;;0.10;0.10;;;;;;;9.85;75.39;99572.50;5072377;28;20035;-79
2022/11/23 00:34:45;;;;;;;0.65;0.65;;;;;;;9.91;75.37;99580.22;5072789;28;20064;-78
2022/11/23 00:37:11;;;;;;;0.40;0.40;;;;;;;9.87;75.70;99583.91;5086938;28;20029;-78
2022/11/23 00:39:38;;;;;;;0.52;0.52;;;;;;;9.91;75.87;99582.84;5097985;28;20036;-76
2022/11/23 00:42:04;;;;;;;0.10;0.10;;;;;;;9.99;75.75;99580.78;5084842;28;20044;-78
2022/11/23 00:44:30;;;;;;;0.10;0.10;;;;;;;10.01;75.61;99588.66;5078572;28;20032;-78
2022/11/23 00:46:56;;;;;;;0.10;0.10;;;;;;;10.03;75.69;99587.69;5071141;28;20610;-78
2022/11/23 00:49:22;;;;;;;0.20;0.20;;;;;;;10.03;75.55;99586.81;5071433;28;20063;-77
2022/11/23 00:51:48;;;;;;;0.10;0.10;;;;;;;10.07;75.48;99582.25;5076580;28;20040;-78
2022/11/23 00:54:14;;;;;;;0.28;0.25;;;;;;;10.07;75.47;99582.25;5079796;28;20020;-78
2022/11/23 00:56:40;;;;;;;0.22;0.22;;;;;;;10.10;75.62;99584.81;5072651;28;20124;-78
2022/11/23 00:59:08;;;;;;;0.17;0.17;;;;;;;10.13;75.11;99592.59;5074528;28;20029;-78
2022/11/23 01:01:35;;;;;;;0.22;0.22;;;;;;;10.09;75.79;99593.66;5072732;28;20037;-78
2022/11/23 01:04:04;;;;;;;0.20;0.20;;;;;;;10.12;75.83;99590.88;5073631;28;20028;-78
2022/11/23 01:06:33;;;;;;;0.65;0.65;;;;;;;10.16;75.70;99590.72;5076988;28;20430;-78
2022/11/23 01:09:03;;;;;;;0.10;0.10;;;;;;;10.22;75.29;99586.97;5072541;28;20033;-78
2022/11/23 01:11:30;;;;;;;0.10;0.10;;;;;;;10.21;75.79;99593.19;5081445;28;20119;-78
2022/11/23 01:13:57;;;;;;;2.08;0.40;;;;;;;10.21;75.46;99593.19;5088759;28;20032;-77
2022/11/23 01:16:29;;;;;;;0.10;0.10;;;;;;;10.22;75.55;99591.41;5088215;28;20055;-77
2022/11/23 01:18:57;;;;;;;0.35;0.35;;;;;;;10.16;75.77;99593.34;5090593;28;20040;-77
2022/11/23 01:21:25;;;;;;;0.65;0.65;;;;;;;10.20;75.60;99600.28;5087633;28;20031;-77
2022/11/23 01:23:52;;;;;;;0.20;0.20;;;;;;;10.18;75.98;99601.22;5092423;28;20032;-77
2022/11/23 01:26:18;;;;;;;0.22;0.22;;;;;;;10.21;75.66;99595.84;5088706;28;20028;-78
2022/11/23 01:28:44;;;;;;;1.20;0.63;;;;;;;10.18;75.92;99596.81;5086103;28;20036;-78
2022/11/23 01:31:14;;;;;;;0.20;0.20;;;;;;;10.24;75.54;99602.78;5065467;28;20104;-78
2022/11/23 01:33:41;;;;;;;1.10;1.10;;;;;;;10.21;75.82;99598.47;5072152;28;20029;-78
2022/11/23 01:36:15;;;;;;;0.10;0.10;;;;;;;10.23;75.71;99604.59;5062063;28;20037;-78
2022/11/23 01:38:42;;;;;;;0.10;0.10;;;;;;;10.24;75.50;99606.28;5065907;28;20082;-78
2022/11/23 01:41:12;;;;;;;1.27;1.17;;;;;;;10.23;75.67;99601.94;5071369;28;20153;-78
2022/11/23 01:43:38;;;;;;;0.10;0.10;;;;;;;10.21;75.78;99606.44;5068065;28;20040;-78
2022/11/23 01:46:05;;;;;;;0.20;0.20;;;;;;;10.20;75.79;99612.63;5070754;28;20039;-78
2022/11/23 01:48:38;;;;;;;0.20;0.20;;;;;;;10.24;75.56;99611.59;5068841;28;20028;-77
2022/11/23 01:51:10;;;;;;;0.17;0.17;;;;;;;10.19;75.57;99603.84;5063545;28;20081;-78
2022/11/23 01:53:37;;;;;;;0.20;0.20;;;;;;;10.20;75.52;99607.34;5085449;28;20026;-77
2022/11/23 01:56:06;;;;;;;0.20;0.20;;;;;;;10.15;75.38;99619.91;5078886;28;20039;-77
2022/11/23 01:58:37;;;;;;;0.10;0.10;;;;;;;10.20;75.27;99615.28;5074383;28;20312;-78
2022/11/23 02:01:04;;;;;;;0.20;0.20;;;;;;;10.14;75.12;99620.81;5064588;28;20049;-78
2022/11/23 02:03:33;;;;;;;0.17;0.17;;;;;;;10.16;75.32;99618.97;5063719;28;20013;-78
2022/11/23 02:06:02;;;;;;;0.10;0.10;;;;;;;10.14;75.27;99620.81;5057284;28;20416;-78
2022/11/23 02:08:30;;;;;;;0.28;0.28;;;;;;;10.12;75.21;99614.69;5060051;28;20040;-78
2022/11/23 02:10:57;;;;;;;0.20;0.20;;;;;;;10.10;75.11;99613.91;5062117;28;20297;-78
2022/11/23 02:13:26;;;;;;;0.20;0.20;;;;;;;10.06;74.88;99618.47;5061438;28;20543;-78
2022/11/23 02:15:53;;;;;;;0.20;0.20;;;;;;;10.04;74.91;99626.47;5060059;28;20047;-77
2022/11/23 02:18:23;;;;;;;0.10;0.10;;;;;;;10.00;74.82;99616.88;5063025;28;20033;-77
2022/11/23 02:20:50;;;;;;;0.40;0.40;;;;;;;9.99;75.02;99622.25;5075512;28;20614;-78
2022/11/23 02:23:32;;;;;;;1.33;1.33;;;;;;;10.01;74.79;99625.72;5065977;28;20039;-78
2022/11/23 02:26:27;;;;;;;0.87;0.87;;;;;;;10.00;74.83;99623.97;5069068;28;20484;-78
2022/11/23 02:29:01;;;;;;;0.20;0.20;;;;;;;9.93;74.74;99623.34;5065605;28;20040;-78
2022/11/23 02:31:27;;;;;;;0.20;0.20;;;;;;;9.84;74.96;99626.31;5064067;28;20040;-78
2022/11/23 02:33:53;;;;;;;1.08;1.08;;;;;;;9.71;75.01;99624.13;5058757;28;20420;-78
2022/11/23 02:36:48;;;;;;;0.10;0.10;;;;;;;9.76;75.00;99621.31;5062339;28;20032;-78
2022/11/23 02:39:26;;;;;;;0.10;0.10;;;;;;;9.76;74.97;99623.09;5072499;28;20507;-77
2022/11/23 02:41:53;;;;;;;0.15;0.15;;;;;;;9.69;74.90;99630.38;5066760;28;20057;-78
2022/11/23 02:47:11;;;;;;;0.65;0.65;;;;;;;9.76;75.24;99626.59;5071382;27;20408;-78
2022/11/23 02:49:40;;;;;;;2.55;1.02;;;;;;;9.75;75.48;99629.31;5060983;28;20041;-79
2022/11/23 02:52:07;;;;;;;1.27;0.85;;;;;;;9.76;75.49;99621.31;5049865;28;20035;-79
2022/11/23 02:54:34;;;;;;;0.10;0.10;;;;;;;9.81;75.55;99622.00;5070648;28;20025;-78
2022/11/23 02:57:00;;;;;;;0.13;0.13;;;;;;;9.84;75.41;99616.63;5055195;28;20029;-79
2022/11/23 02:59:26;;;;;;;0.10;0.10;;;;;;;9.91;75.37;99627.84;5064174;28;20039;-78
2022/11/23 03:01:53;;;;;;;0.20;0.20;;;;;;;9.88;75.36;99628.81;5059169;28;20416;-79
2022/11/23 03:04:19;;;;;;;0.20;0.20;;;;;;;9.92;75.55;99620.75;5060101;28;20044;-78
2022/11/23 03:06:45;;;;;;;0.17;0.17;;;;;;;9.94;75.76;99621.56;5057911;28;20084;-78
2022/11/23 03:09:11;;;;;;;0.32;0.32;;;;;;;9.99;75.31;99628.41;5059574;28;20595;-79
2022/11/23 03:11:38;;;;;;;0.10;0.10;;;;;;;10.03;75.33;99635.31;5078601;28;20007;-77
2022/11/23 03:14:04;;;;;;;0.20;0.20;;;;;;;10.02;75.32;99632.75;5077197;28;20543;-78
2022/11/23 03:16:32;;;;;;;0.30;0.30;;;;;;;10.08;75.15;99631.63;5056755;28;20021;-79
2022/11/23 03:18:58;;;;;;;0.10;0.10;;;;;;;10.10;75.18;99635.09;5054696;28;20512;-79
2022/11/23 03:21:25;;;;;;;0.10;0.10;;;;;;;10.12;75.03;99633.22;5065235;28;20040;-78
2022/11/23 03:23:51;;;;;;;0.47;0.47;;;;;;;10.09;75.01;99633.34;5059913;28;20447;-79
2022/11/23 03:26:17;;;;;;;0.10;0.10;;;;;;;10.08;74.93;99628.97;5061489;28;20100;-78
2022/11/23 03:28:43;;;;;;;0.20;0.20;;;;;;;10.15;74.86;99633.13;5066665;28;20033;-78
2022/11/23 03:31:10;;;;;;;0.15;0.15;;;;;;;10.15;74.80;99633.97;5060710;28;20064;-79
2022/11/23 03:33:36;;;;;;;0.20;0.20;;;;;;;10.19;74.92;99642.66;5052134;28;20036;-79
2022/11/23 03:36:02;;;;;;;0.30;0.30;;;;;;;10.16;74.95;99651.59;5058942;28;20030;-79
2022/11/23 03:38:28;;;;;;;1.38;1.27;;;;;;;10.23;74.80;99646.94;5057805;28;20026;-79
2022/11/23 03:40:54;;;;;;;0.98;0.98;;;;;;;10.22;74.81;99634.63;5058173;28;20098;-79
2022/11/23 03:43:21;;;;;;;0.10;0.10;;;;;;;10.24;74.69;99637.22;5064546;28;20031;-79
2022/11/23 03:45:47;;;;;;;0.63;0.63;;;;;;;10.25;74.46;99647.72;5064088;28;20020;-78
2022/11/23 03:48:13;;;;;;;0.10;0.10;;;;;;;10.25;74.52;99652.19;5070514;28;20037;-77
2022/11/23 03:50:39;;;;;;;0.10;0.10;;;;;;;10.20;74.71;99647.94;5059878;28;20028;-78
2022/11/23 03:53:06;;;;;;;2.67;2.47;;;;;;;10.27;74.65;99651.19;5064808;28;20069;-77
2022/11/23 03:55:33;;;;;;;0.85;0.85;;;;;;;10.28;74.71;99644.97;5065895;28;20037;-78
2022/11/23 03:57:59;;;;;;;0.10;0.10;;;;;;;10.30;74.66;99643.13;5058661;28;20041;-78
2022/11/23 04:00:27;;;;;;;0.13;0.13;;;;;;;10.28;74.53;99641.47;5047595;28;20433;-79
2022/11/23 04:02:53;;;;;;;0.20;0.20;;;;;;;10.29;74.69;99637.91;5046080;28;20723;-78
2022/11/23 04:05:20;;;;;;;0.20;0.20;;;;;;;10.22;74.53;99639.94;5041952;28;20040;-78
2022/11/23 04:07:46;;;;;;;0.20;0.20;;;;;;;10.25;74.55;99638.94;5036861;28;20029;-78
2022/11/23 04:10:16;;;;;;;2.20;0.70;;;;;;;10.26;74.28;99638.03;5046682;28;20170;-78
2022/11/23 04:12:43;;;;;;;0.20;0.20;;;;;;;10.23;74.38;99643.41;5047653;28;20041;-78
2022/11/23 04:15:10;;;;;;;0.30;0.30;;;;;;;10.29;74.14;99651.13;5046518;28;20025;-78
2022/11/23 04:17:36;;;;;;;0.20;0.20;;;;;;;10.30;74.00;99647.56;5049527;28;20033;-78
2022/11/23 04:20:03;;;;;;;0.70;0.70;;;;;;;10.33;73.91;99644.78;5045944;28;20158;-78
2022/11/23 04:22:30;;;;;;;1.23;1.23;;;;;;;10.33;73.66;99645.66;5039937;28;20055;-78
2022/11/23 04:24:56;;;;;;;0.10;0.10;;;;;;;10.32;73.72;99649.22;5046025;28;20045;-79
2022/11/23 04:27:22;;;;;;;0.20;0.20;;;;;;;10.36;73.61;99637.63;5054613;28;20030;-79
2022/11/23 04:29:48;;;;;;;0.10;0.10;;;;;;;10.38;73.80;99639.34;5067510;28;20028;-78
2022/11/23 04:32:14;;;;;;;0.10;0.10;;;;;;;10.34;73.41;99650.03;5048211;28;20068;-79
2022/11/23 04:34:40;;;;;;;0.85;0.85;;;;;;;10.36;73.56;99650.88;5037528;28;20025;-79
2022/11/23 04:37:06;;;;;;;0.20;0.20;;;;;;;10.32;73.38;99651.88;5040424;28;20043;-79
2022/11/23 04:39:32;;;;;;;0.20;0.20;;;;;;;10.35;73.25;99649.13;5049533;28;20041;-79
2022/11/23 04:41:58;;;;;;;1.85;1.75;;;;;;;10.38;73.09;99644.66;5044404;28;20040;-79
2022/11/23 04:44:24;;;;;;;0.22;0.22;;;;;;;10.30;73.06;99643.13;5042367;28;20098;-78
2022/11/23 04:46:51;;;;;;;0.35;0.35;;;;;;;10.33;72.99;99647.44;5023989;28;20025;-79
2022/11/23 04:49:17;;;;;;;0.80;0.80;;;;;;;10.33;72.68;99648.31;5036885;28;20531;-79
2022/11/23 04:51:43;;;;;;;0.50;0.50;;;;;;;10.36;72.84;99639.44;5041006;28;20041;-79
2022/11/23 04:54:09;;;;;;;0.10;0.10;;;;;;;10.38;72.66;99642.00;5049892;28;20040;-79
2022/11/23 04:56:35;;;;;;;0.93;0.88;;;;;;;10.40;72.47;99648.13;5038215;28;20125;-79
2022/11/23 04:59:01;;;;;;;0.30;0.30;;;;;;;10.33;72.20;99647.44;5049836;28;20082;-79
2022/11/23 05:01:27;;;;;;;0.20;0.20;;;;;;;10.35;72.06;99651.78;5050667;28;20074;-78
2022/11/23 05:03:53;;;;;;;0.50;0.50;;;;;;;10.40;72.21;99641.03;5050919;28;20036;-78
2022/11/23 05:06:19;;;;;;;0.10;0.10;;;;;;;10.40;71.74;99642.81;5050384;28;20060;-78
2022/11/23 05:08:45;;;;;;;0.20;0.20;;;;;;;10.36;71.89;99636.78;5046354;28;20049;-79
2022/11/23 05:11:11;;;;;;;0.10;0.10;;;;;;;10.38;71.63;99644.66;5046649;28;20404;-78
2022/11/23 05:13:38;;;;;;;0.20;0.20;;;;;;;10.32;71.67;99654.53;5044846;28;20505;-79
2022/11/23 05:16:04;;;;;;;0.32;0.28;;;;;;;10.33;72.13;99645.66;5041789;28;20039;-78
2022/11/23 05:18:30;;;;;;;2.50;0.95;;;;;;;10.33;71.28;99658.91;5047042;28;20040;-78
2022/11/23 05:20:56;;;;;;;0.20;0.20;;;;;;;10.33;71.25;99656.25;5045349;28;20037;-79
2022/11/23 05:23:22;;;;;;;0.30;0.30;;;;;;;10.39;71.58;99651.69;5041554;28;20041;-79
2022/11/23 05:25:48;;;;;;;0.10;0.10;;;;;;;10.27;71.22;99653.84;5036139;28;20036;-78
2022/11/23 05:28:17;;;;;;;0.10;0.10;;;;;;;10.23;71.18;99654.88;5039551;28;20025;-78
2022/11/23 05:30:44;;;;;;;1.60;1.35;;;;;;;10.25;71.19;99671.56;5036577;28;20028;-78
2022/11/23 05:33:10;;;;;;;21.42;2.72;;;;;;;10.24;71.03;99667.19;5040879;28;20103;-78
2022/11/23 05:35:36;;;;;;;1.27;1.17;;;;;;;10.27;70.99;99653.84;5052081;28;20071;-79
2022/11/23 05:38:02;;;;;;;0.52;0.52;;;;;;;10.24;71.02;99664.53;5041806;28;20025;-79
2022/11/23 05:40:29;;;;;;;0.10;0.10;;;;;;;10.22;71.12;99658.44;5039541;28;20083;-79
2022/11/23 05:42:57;;;;;;;0.20;0.20;;;;;;;10.24;70.98;99661.88;5042385;28;20029;-78
2022/11/23 05:45:24;;;;;;;0.20;0.20;;;;;;;10.27;71.00;99648.53;5064249;28;20044;-78
2022/11/23 05:47:51;;;;;;;0.20;0.20;;;;;;;10.25;70.98;99655.69;5055990;28;20029;-78
2022/11/23 05:50:17;;;;;;;0.30;0.30;;;;;;;10.21;70.73;99659.38;5049086;28;20466;-78
2022/11/23 05:52:44;;;;;;;0.10;0.10;;;;;;;10.20;70.86;99660.28;5038752;28;20025;-78
2022/11/23 05:55:10;;;;;;;0.57;0.57;;;;;;;10.23;71.10;99652.25;5035880;28;20616;-78
2022/11/23 05:57:36;;;;;;;5.72;2.55;;;;;;;10.20;71.06;99661.16;5036019;28;20093;-79
2022/11/23 06:00:04;;;;;;;0.10;0.10;;;;;;;10.13;70.75;99651.72;5035188;28;20029;-78
2022/11/23 06:02:30;;;;;;;0.17;0.17;;;;;;;10.14;70.78;99655.22;5033728;28;20048;-79
2022/11/23 06:04:57;;;;;;;0.20;0.20;;;;;;;10.13;70.97;99653.50;5036084;28;20042;-78
2022/11/23 06:07:24;;;;;;;0.20;0.20;;;;;;;10.14;71.05;99650.81;5035982;28;20037;-78
2022/11/23 06:09:50;;;;;;;0.10;0.10;;;;;;;10.10;70.93;99646.53;5037364;28;20390;-78
2022/11/23 06:12:16;;;;;;;0.25;0.25;;;;;;;10.10;71.09;99648.31;5035031;28;20505;-78
2022/11/23 06:14:42;;;;;;;0.17;0.17;;;;;;;10.09;71.19;99651.88;5039063;28;20064;-78
2022/11/23 06:17:08;;;;;;;0.10;0.10;;;;;;;10.06;71.23;99652.00;5045564;28;20028;-78
2022/11/23 06:19:34;;;;;;;0.20;0.20;;;;;;;10.04;71.34;99644.09;5044154;28;20039;-78
2022/11/23 06:22:00;;;;;;;0.10;0.10;;;;;;;9.99;71.29;99643.41;5047160;28;20051;-78
2022/11/23 06:24:26;;;;;;;0.10;0.10;;;;;;;9.92;71.18;99647.19;5048409;28;20045;-78
2022/11/23 06:26:53;;;;;;;0.10;0.10;;;;;;;9.83;71.19;99646.63;5040582;28;20575;-78
2022/11/23 06:29:19;;;;;;;0.10;0.10;;;;;;;9.77;71.37;99646.84;5051034;28;20036;-78
2022/11/23 06:31:45;;;;;;;0.13;0.13;;;;;;;9.71;71.25;99640.00;5037721;28;20051;-78
2022/11/23 06:34:12;;;;;;;0.10;0.10;;;;;;;9.63;71.62;99643.81;5049837;28;20040;-78
2022/11/23 06:36:39;;;;;;;0.10;0.10;;;;;;;9.51;71.61;99643.34;5045087;28;20083;-78
2022/11/23 06:39:05;;;;;;;0.20;0.20;;;;;;;9.45;71.82;99648.00;5041341;28;20037;-78
2022/11/23 06:41:31;;;;;;;0.10;0.10;;;;;;;9.36;71.83;99647.38;5040411;28;20104;-79
2022/11/23 06:43:57;;;;;;;0.10;0.10;;;;;;;9.30;71.35;99646.75;5039923;28;20057;-78
2022/11/23 06:46:23;;;;;;;0.30;0.30;;;;;;;9.21;71.82;99645.28;5038438;28;20029;-78
2022/11/23 06:48:49;;;;;;;0.20;0.20;;;;;;;9.14;71.62;99649.88;5038785;28;20037;-78
2022/11/23 06:51:15;;;;;;;0.30;0.30;;;;;;;9.07;71.68;99648.34;5036731;28;20041;-78
2022/11/23 06:53:41;;;;;;;0.20;0.20;;;;;;;8.99;71.73;99645.13;5042429;28;20392;-77
2022/11/23 06:56:08;;;;;;;0.20;0.20;;;;;;;8.87;71.90;99659.56;5040210;28;20382;-78
2022/11/23 06:58:34;;;;;;;9.63;1.17;;;;;;;8.82;72.48;99661.50;5040789;28;20058;-78
2022/11/23 07:01:04;;;;;;;0.20;0.20;;;;;;;8.80;72.62;99671.25;5057112;28;20057;-76
2022/11/23 07:03:30;;;;;;;0.10;0.10;;;;;;;8.78;72.54;99673.94;5054574;28;20029;-78
2022/11/23 07:05:56;;;;;;;0.40;0.40;;;;;;;8.79;73.01;99674.81;5034697;28;20036;-78
2022/11/23 07:08:22;;;;;;;0.20;0.20;;;;;;;8.79;73.11;99682.75;5036834;28;20059;-78
2022/11/23 07:10:48;;;;;;;0.20;0.20;;;;;;;8.73;73.29;99695.22;5031062;28;20113;-77
2022/11/23 07:13:15;;;;;;;0.10;0.10;;;;;;;8.76;73.09;99690.75;5036190;28;20033;-77
2022/11/23 07:15:41;;;;;;;0.10;0.10;;;;;;;8.83;73.37;99698.41;5046405;28;20086;-78
2022/11/23 07:18:09;;;;;;;0.10;0.10;;;;;;;8.84;72.94;99691.38;5044500;28;20025;-77
2022/11/23 07:20:35;;;;;;;0.10;0.10;;;;;;;8.81;72.85;99691.47;5042768;28;20061;-78
2022/11/23 07:23:03;;;;;;;0.20;0.20;;;;;;;8.82;73.57;99690.56;5042838;28;20043;-78
2022/11/23 07:25:31;;;;;;;0.20;0.20;;;;;;;8.88;73.43;99693.88;5047539;28;20029;-78
2022/11/23 07:27:58;;;;;;;0.25;0.25;;;;;;;8.95;73.51;99698.94;5043308;28;20052;-78
2022/11/23 07:30:26;;;;;;;0.10;0.10;;;;;;;8.97;73.39;99711.22;5033003;28;20044;-76
2022/11/23 07:32:52;;;;;;;0.10;0.10;;;;;;;9.02;73.35;99705.78;5042407;28;20030;-78
2022/11/23 07:35:19;;;;;;;0.73;0.73;;;;;;;9.10;73.26;99708.16;5042358;28;20107;-78
2022/11/23 07:37:46;;;;;;;0.10;0.10;;;;;;;9.13;72.78;99718.66;5048811;28;20040;-77
2022/11/23 07:40:12;;;;;;;0.20;0.20;;;;;;;9.19;73.17;99715.81;5044284;28;20036;-78
2022/11/23 07:42:38;;;;;;;0.10;0.10;;;;;;;9.19;72.89;99721.09;5048004;28;20024;-77
2022/11/23 07:45:06;;;;;;;0.10;0.10;;;;;;;9.23;72.88;99720.06;5048922;28;20585;-77
2022/11/23 07:47:32;;;;;;;0.17;0.17;;;;;;;9.25;72.87;99723.53;5041191;28;20096;-78
2022/11/23 07:49:58;;;;;;;2.00;1.85;;;;;;;9.28;72.70;99718.13;5028665;28;20072;-77
2022/11/23 07:52:24;;;;;;;0.10;0.10;;;;;;;9.29;72.92;99726.94;5038931;28;20029;-77
2022/11/23 07:54:50;;;;;;;0.10;0.10;;;;;;;9.29;72.72;99727.78;5038436;28;20029;-79
2022/11/23 07:57:16;;;;;;;0.10;0.10;;;;;;;9.36;72.86;99728.47;5039492;28;20029;-78
2022/11/23 07:59:42;;;;;;;0.20;0.20;;;;;;;9.43;73.01;99734.41;5041025;28;20159;-78
2022/11/23 08:02:11;;;;;;;0.10;0.10;;;;;;;9.50;72.93;99725.38;5037381;28;20029;-77
2022/11/23 08:04:38;;;;;;;0.10;0.10;;;;;;;9.51;73.07;99730.59;5016229;28;20028;-77
2022/11/23 08:07:04;;;;;;;0.10;0.10;;;;;;;9.60;72.53;99734.72;5018532;28;20042;-77
2022/11/23 08:09:31;;;;;;;0.10;0.10;;;;;;;9.66;72.51;99741.59;5021272;28;20028;-77
2022/11/23 08:11:57;;;;;;;0.10;0.10;;;;;;;9.69;72.51;99733.53;5045351;28;20068;-77
2022/11/23 08:14:24;;;;;;;1.40;1.30;;;;;;;9.76;72.70;99731.53;5044911;28;20056;-78
2022/11/23 08:16:51;;;;;;;0.25;0.25;;;;;;;9.79;72.44;99731.44;5056624;28;20025;-77
2022/11/23 08:19:17;;;;;;;0.10;0.10;;;;;;;9.83;72.36;99730.41;5067290;28;20036;-78
2022/11/23 08:21:44;;;;;;;0.10;0.10;;;;;;;9.86;72.52;99730.31;5027399;28;20041;-78
2022/11/23 08:24:11;;;;;;;0.25;0.25;;;;;;;9.85;72.62;99731.22;5038087;28;20576;-77
2022/11/23 08:26:38;;;;;;;0.20;0.20;;;;;;;9.85;72.83;99733.88;5038748;28;20029;-77
2022/11/23 08:29:04;;;;;;;0.20;0.20;;;;;;;9.81;72.72;99734.91;5040850;28;20045;-76
2022/11/23 08:31:31;;;;;;;0.10;0.10;;;;;;;9.95;72.63;99739.72;5050301;28;20407;-78
2022/11/23 08:33:57;;;;;;;0.20;0.20;;;;;;;9.94;72.43;99738.84;5033574;28;20119;-78
2022/11/23 08:36:23;;;;;;;0.10;0.10;;;;;;;9.99;72.19;99742.22;5051094;28;20408;-77
2022/11/23 08:38:50;;;;;;;0.20;0.20;;;;;;;10.03;71.98;99741.16;5022328;28;20037;-78
2022/11/23 08:41:20;;;;;;;0.10;0.10;;;;;;;10.06;71.95;99742.00;5034271;28;20025;-79
2022/11/23 08:43:47;;;;;;;0.10;0.10;;;;;;;10.04;71.44;99742.91;5041198;28;20034;-79
2022/11/23 08:46:13;;;;;;;0.22;0.22;;;;;;;10.12;71.05;99739.09;5047050;28;20072;-79
2022/11/23 08:48:39;;;;;;;0.25;0.25;;;;;;;10.20;71.41;99743.22;5041583;28;20721;-77
2022/11/23 08:51:06;;;;;;;0.38;0.38;;;;;;;10.28;71.26;99735.00;5043353;28;20029;-78
2022/11/23 08:53:33;;;;;;;0.10;0.10;;;;;;;10.35;70.48;99736.50;5043258;28;20049;-78
2022/11/23 08:56:01;;;;;;;0.13;0.13;;;;;;;10.45;70.09;99738.84;5039862;28;20017;-78
2022/11/23 08:58:27;;;;;;;0.13;0.13;;;;;;;10.41;68.97;99724.00;5042500;28;20158;-78
2022/11/23 09:00:53;;;;;;;0.40;0.40;;;;;;;10.46;68.90;99716.72;5044789;28;20033;-77
2022/11/23 09:03:20;;;;;;;0.10;0.10;;;;;;;10.48;68.29;99728.09;5038240;28;20515;-78
2022/11/23 09:05:46;;;;;;;0.25;0.25;;;;;;;10.48;68.54;99715.75;5027318;28;20021;-78
2022/11/23 09:08:15;;;;;;;0.10;0.10;;;;;;;10.46;68.00;99711.44;5036325;28;20040;-78
2022/11/23 09:10:41;;;;;;;0.10;0.10;;;;;;;10.43;68.13;99722.13;5053806;28;20513;-78
2022/11/23 09:13:07;;;;;;;0.55;0.55;;;;;;;10.33;67.92;99705.69;5027425;28;20029;-78
2022/11/23 09:15:34;;;;;;;0.10;0.10;;;;;;;10.34;67.79;99713.59;5049718;28;20045;-78
2022/11/23 09:18:00;;;;;;;0.17;0.17;;;;;;;10.28;67.94;99697.94;5051698;28;20028;-78
2022/11/23 09:20:26;;;;;;;0.10;0.10;;;;;;;10.23;68.01;99697.25;5039051;28;20034;-79
2022/11/23 09:22:53;;;;;;;0.10;0.10;;;;;;;10.25;67.76;99690.09;5037131;28;20044;-78
2022/11/23 09:25:21;;;;;;;0.65;0.65;;;;;;;10.24;67.56;99685.72;5040260;28;20021;-78
2022/11/23 09:27:47;;;;;;;2.42;1.67;;;;;;;10.21;67.45;99680.53;5037460;28;20120;-78
2022/11/23 09:30:14;;;;;;;0.30;0.30;;;;;;;10.17;67.42;99674.50;5038293;28;20547;-78
2022/11/23 09:32:40;;;;;;;0.10;0.10;;;;;;;10.17;67.15;99663.06;5047920;28;20034;-78
2022/11/23 09:35:07;;;;;;;0.10;0.10;;;;;;;10.15;67.59;99649.00;5058102;28;20045;-77
2022/11/23 09:37:33;;;;;;;0.10;0.10;;;;;;;10.18;67.72;99646.22;5045571;28;20037;-78
2022/11/23 09:39:59;;;;;;;4.15;1.20;;;;;;;10.13;67.28;99650.84;5042794;28;20047;-78
2022/11/23 09:45:29;;;;;;;0.10;0.10;;;;;;;10.16;66.87;99659.53;5025845;27;20393;-77
2022/11/23 09:48:15;;;;;;;0.20;0.20;;;;;;;10.09;66.48;99651.88;5015441;28;20042;-77
2022/11/23 09:50:52;;;;;;;0.10;0.10;;;;;;;10.15;66.51;99657.81;5010394;28;20030;-77
2022/11/23 09:53:27;;;;;;;0.20;0.20;;;;;;;10.20;66.67;99652.34;5032157;28;20011;-77
2022/11/23 09:55:56;;;;;;;0.10;0.10;;;;;;;10.17;66.50;99650.69;5009596;28;20128;-77
2022/11/23 09:58:29;;;;;;;0.60;0.60;;;;;;;10.21;66.61;99654.06;5004579;28;20588;-76
2022/11/23 10:03:35;;;;;;;0.15;0.15;;;;;;;10.20;66.52;99666.47;5077232;28;20365;-76
2022/11/23 10:08:58;;;;;;;0.10;0.10;;;;;;;10.18;66.32;99670.06;5104644;27;20340;-77
2022/11/23 10:11:40;;;;;;;0.10;0.10;;;;;;;10.32;66.56;99661.63;5092196;28;20488;-78
2022/11/23 10:14:22;;;;;;;0.10;0.10;;;;;;;10.32;66.29;99666.91;5094648;28;20460;-77
2022/11/23 10:19:56;;;;;;;0.10;0.10;;;;;;;10.30;65.56;99671.41;5065420;28;20384;-79
2022/11/23 10:22:32;;;;;;;1.95;1.85;;;;;;;10.28;65.55;99674.09;5051708;28;20033;-78
2022/11/23 10:25:02;;;;;;;0.10;0.10;;;;;;;10.25;65.69;99676.00;5055223;28;20373;-78
2022/11/23 10:27:30;;;;;;;0.20;0.20;;;;;;;10.26;65.64;99675.94;5052051;28;20021;-79
2022/11/23 10:29:58;;;;;;;3.08;1.88;;;;;;;10.27;65.64;99669.72;5048463;28;20040;-77
2022/11/23 10:32:49;;;;;;;0.10;0.10;;;;;;;10.34;65.68;99670.34;5050583;28;20071;-77
2022/11/23 10:35:26;;;;;;;0.35;0.35;;;;;;;10.33;65.98;99669.50;5051030;28;20025;-78
2022/11/23 10:38:08;;;;;;;0.10;0.10;;;;;;;10.51;65.88;99661.81;5048457;28;20013;-79
2022/11/23 10:40:37;;;;;;;0.20;0.20;;;;;;;10.56;65.57;99669.56;5050786;28;20044;-78
2022/11/23 10:43:27;;;;;;;0.80;0.80;;;;;;;10.44;64.92;99679.72;5053308;28;20129;-77
2022/11/23 10:46:23;;;;;;;0.20;0.20;;;;;;;10.56;65.13;99688.97;5053727;28;20397;-77
2022/11/23 10:48:51;;;;;;;0.20;0.20;;;;;;;10.42;65.54;99683.31;5058950;28;20029;-76
2022/11/23 10:51:29;;;;;;;0.10;0.10;;;;;;;10.44;65.59;99673.53;5067916;28;20060;-78
2022/11/23 10:54:00;;;;;;;0.20;0.20;;;;;;;10.44;65.36;99677.06;5055105;28;20286;-78
2022/11/23 10:56:26;;;;;;;0.13;0.13;;;;;;;10.36;64.65;99674.69;5055004;28;20029;-78
2022/11/23 10:58:53;;;;;;;0.10;0.10;;;;;;;10.41;63.98;99673.69;5052922;28;20500;-79
2022/11/23 11:01:23;;;;;;;0.17;0.17;;;;;;;10.45;64.37;99662.88;5052522;28;20037;-79
2022/11/23 11:03:53;;;;;;;0.15;0.15;;;;;;;10.44;63.78;99661.19;5061521;28;20419;-79
2022/11/23 11:09:03;;;;;;;0.10;0.10;;;;;;;10.46;64.49;99626.69;5109956;27;20388;-78
2022/11/23 11:11:35;;;;;;;0.20;0.20;;;;;;;10.39;64.07;99619.91;5094020;28;20515;-78
2022/11/23 11:14:19;;;;;;;0.10;0.10;;;;;;;10.52;64.42;99626.47;5093620;28;20044;-78
2022/11/23 11:16:50;;;;;;;0.20;0.20;;;;;;;10.55;64.03;99610.44;5097532;28;20024;-77
2022/11/23 11:19:33;;;;;;;0.10;0.10;;;;;;;10.76;64.33;99602.56;5087391;28;20028;-78
2022/11/23 11:22:03;;;;;;;0.10;0.10;;;;;;;10.78;64.29;99596.25;5102181;28;20035;-78
2022/11/23 11:24:36;;;;;;;2.03;1.85;;;;;;;10.90;63.78;99588.72;5095880;28;20016;-78
2022/11/23 11:27:11;;;;;;;0.20;0.20;;;;;;;11.00;63.29;99587.41;5095544;28;20020;-78
2022/11/23 11:32:33;;;;;;;0.10;0.10;;;;;;;11.21;63.37;99576.84;5118997;27;20396;-78
2022/11/23 11:35:24;;;;;;;0.10;0.10;;;;;;;11.44;63.40;99573.16;5112482;28;20082;-78
2022/11/23 11:37:54;;;;;;;0.10;0.10;;;;;;;11.46;63.09;99566.03;5107581;28;20374;-77
2022/11/23 11:40:30;;;;;;;0.17;0.17;;;;;;;11.49;62.32;99565.91;5096983;28;20070;-78
2022/11/23 11:46:22;;;;;;;0.20;0.20;;;;;;;11.63;62.26;99573.22;5101815;27;20367;-77
2022/11/23 11:48:54;;;;;;;1.27;1.17;;;;;;;11.59;62.35;99561.00;5092596;28;20038;-77
2022/11/23 11:51:30;;;;;;;0.10;0.10;;;;;;;11.62;62.47;99566.19;5088214;28;20024;-77
2022/11/23 11:54:04;;;;;;;0.10;0.10;;;;;;;11.68;62.16;99565.06;5091601;28;20086;-77
2022/11/23 11:56:35;;;;;;;0.10;0.10;;;;;;;11.69;62.35;99561.47;5105730;28;20051;-79
2022/11/23 11:59:27;;;;;;;0.10;0.10;;;;;;;11.81;62.30;99553.84;5095833;28;20028;-79
2022/11/23 12:02:20;;;;;;;0.10;0.10;;;;;;;11.82;62.01;99560.00;5101133;28;20024;-78
2022/11/23 12:13:32;;;;;;;0.17;0.17;;;;;;;11.89;61.41;99542.00;5100428;27;20393;-77